createdAt,value
2019-01-21T00:01:01.923Z,98334.25
2019-01-21T00:03:30.563Z,98334.66
2019-01-21T00:05:59.294Z,98337.77
2019-01-21T00:08:28.023Z,98332.77
2019-01-21T00:10:56.677Z,98337.80
2019-01-21T00:13:25.386Z,98335.30
2019-01-21T00:15:55.571Z,98340.58
2019-01-21T00:18:24.266Z,98346.02
2019-01-21T00:20:53.223Z,98345.65
2019-01-21T00:23:22.056Z,98345.02
2019-01-21T00:25:51.115Z,98341.47
2019-01-21T00:28:20.204Z,98346.77
2019-01-21T00:30:48.984Z,98353.32
2019-01-21T00:33:17.628Z,98349.04
2019-01-21T00:35:46.326Z,98350.50
2019-01-21T00:38:15.067Z,98346.09
2019-01-21T00:40:44.238Z,98345.50
2019-01-21T00:43:13.158Z,98347.12
2019-01-21T00:45:41.811Z,98354.08
2019-01-21T00:48:10.599Z,98348.88
2019-01-21T00:50:39.949Z,98349.16
2019-01-21T00:53:08.771Z,98337.25
2019-01-21T00:55:37.411Z,98340.03
2019-01-21T00:58:06.075Z,98347.63
2019-01-21T01:00:34.796Z,98346.36
2019-01-21T01:03:03.590Z,98343.44
2019-01-21T01:05:32.242Z,98344.09
2019-01-21T01:08:01.021Z,98348.15
2019-01-21T01:10:29.738Z,98346.73
2019-01-21T01:12:58.379Z,98344.09
2019-01-21T01:15:27.038Z,98347.25
2019-01-21T01:17:55.718Z,98354.82
2019-01-21T01:20:24.374Z,98354.69
2019-01-21T01:22:53.130Z,98351.88
2019-01-21T01:25:22.086Z,98345.66
2019-01-21T01:27:50.822Z,98354.46
2019-01-21T01:30:19.474Z,98348.51
2019-01-21T01:32:48.134Z,98342.78
2019-01-21T01:35:16.874Z,98349.04
2019-01-21T01:37:45.745Z,98346.62
2019-01-21T01:40:15.343Z,98348.30
2019-01-21T01:42:44.107Z,98343.30
2019-01-21T01:45:13.947Z,98341.39
2019-01-21T01:47:44.928Z,98342.05
2019-01-21T01:50:13.025Z,98346.39
2019-01-21T01:52:41.699Z,98344.34
2019-01-21T01:55:10.416Z,98341.75
2019-01-21T01:57:39.075Z,98342.66
2019-01-21T02:00:10.089Z,98341.75
2019-01-21T02:02:39.199Z,98349.34
2019-01-21T02:05:08.059Z,98343.97
2019-01-21T02:07:36.682Z,98339.75
2019-01-21T02:10:05.478Z,98340.19
2019-01-21T02:12:35.447Z,98342.61
2019-01-21T02:15:05.667Z,98339.82
2019-01-21T02:17:35.547Z,98342.69
2019-01-21T02:20:05.185Z,98350.84
2019-01-21T02:22:34.100Z,98341.65
2019-01-21T02:25:03.218Z,98348.11
2019-01-21T02:27:50.142Z,98350.62
2019-01-21T02:30:33.022Z,98352.07
2019-01-21T02:33:14.956Z,98345.22
2019-01-21T02:36:08.641Z,98338.26
2019-01-21T02:38:55.693Z,98342.15
2019-01-21T02:41:33.283Z,98348.05
2019-01-21T02:44:16.116Z,98338.49
2019-01-21T02:47:04.394Z,98341.87
2019-01-21T02:49:42.711Z,98338.80
2019-01-21T02:52:29.636Z,98340.69
2019-01-21T02:55:20.641Z,98342.15
2019-01-21T02:58:07.487Z,98344.46
2019-01-21T03:00:42.767Z,98335.12
2019-01-21T03:03:23.739Z,98339.73
2019-01-21T03:05:58.679Z,98336.44
2019-01-21T03:08:52.647Z,98338.48
2019-01-21T03:11:49.568Z,98338.91
2019-01-21T03:14:40.511Z,98337.38
2019-01-21T03:17:30.159Z,98337.89
2019-01-21T03:20:05.687Z,98336.35
2019-01-21T03:22:52.278Z,98335.20
2019-01-21T03:25:46.330Z,98343.12
2019-01-21T03:28:37.335Z,98339.97
2019-01-21T03:31:28.365Z,98342.06
2019-01-21T03:34:11.632Z,98344.73
2019-01-21T03:36:44.124Z,98342.00
2019-01-21T03:39:31.222Z,98352.02
2019-01-21T03:42:03.293Z,98347.16
2019-01-21T03:44:51.480Z,98353.93
2019-01-21T03:47:28.600Z,98340.98
2019-01-21T03:50:22.318Z,98352.13
2019-01-21T03:53:01.248Z,98355.39
2019-01-21T03:55:29.924Z,98351.84
2019-01-21T03:58:06.469Z,98347.36
2019-01-21T04:00:57.455Z,98351.11
2019-01-21T04:03:33.550Z,98350.38
2019-01-21T04:06:24.953Z,98341.42
2019-01-21T04:09:09.103Z,98335.16
2019-01-21T04:11:51.512Z,98342.15
2019-01-21T04:14:28.293Z,98339.66
2019-01-21T04:17:21.263Z,98340.61
2019-01-21T04:20:18.251Z,98340.17
2019-01-21T04:22:50.570Z,98341.42
2019-01-21T04:25:32.792Z,98338.77
2019-01-21T04:28:07.100Z,98341.36
2019-01-21T04:31:01.175Z,98341.50
2019-01-21T04:33:47.704Z,98341.58
2019-01-21T04:36:24.930Z,98337.02
2019-01-21T04:39:19.280Z,98339.16
2019-01-21T04:41:52.845Z,98340.77
2019-01-21T04:44:41.131Z,98342.91
2019-01-21T04:47:28.220Z,98345.33
2019-01-21T04:50:16.467Z,98343.61
2019-01-21T04:52:58.877Z,98342.39
2019-01-21T04:55:53.232Z,98337.80
2019-01-21T04:58:26.726Z,98344.59
2019-01-21T05:01:16.736Z,98342.58
2019-01-21T05:04:13.711Z,98342.12
2019-01-21T05:07:00.433Z,98346.52
2019-01-21T05:09:48.331Z,98348.73
2019-01-21T05:12:26.326Z,98343.01
2019-01-21T05:15:16.913Z,98345.36
2019-01-21T05:18:03.848Z,98347.48
2019-01-21T05:21:07.257Z,98348.05
2019-01-21T05:23:53.915Z,98356.36
2019-01-21T05:26:41.873Z,98350.83
2019-01-21T05:29:15.162Z,98354.50
2019-01-21T05:32:03.063Z,98352.20
2019-01-21T05:34:39.706Z,98350.11
2019-01-21T05:37:27.618Z,98346.77
2019-01-21T05:40:10.227Z,98352.95
2019-01-21T05:42:46.779Z,98349.80
2019-01-21T05:45:20.115Z,98345.92
2019-01-21T05:48:13.682Z,98348.30
2019-01-21T05:51:00.638Z,98348.08
2019-01-21T05:53:35.774Z,98349.40
2019-01-21T05:56:11.706Z,98346.67
2019-01-21T05:58:59.083Z,98360.78
2019-01-21T06:01:32.485Z,98355.12
2019-01-21T06:04:16.945Z,98360.88
2019-01-21T06:06:53.563Z,98368.55
2019-01-21T06:09:47.442Z,98359.54
2019-01-21T06:12:28.674Z,98366.19
2019-01-21T06:15:06.175Z,98374.11
2019-01-21T06:17:56.783Z,98376.45
2019-01-21T06:20:47.922Z,98371.88
2019-01-21T06:23:38.417Z,98379.91
2019-01-21T06:26:16.175Z,98378.80
2019-01-21T06:29:10.043Z,98379.38
2019-01-21T06:31:57.932Z,98378.88
2019-01-21T06:34:55.143Z,98378.99
2019-01-21T06:37:33.755Z,98382.39
2019-01-21T06:40:12.803Z,98390.54
2019-01-21T06:43:19.183Z,98383.84
2019-01-21T06:45:52.983Z,98390.67
2019-01-21T06:48:49.983Z,98399.58
2019-01-21T06:51:36.766Z,98399.23
2019-01-21T06:54:18.002Z,98409.31
2019-01-21T06:56:51.664Z,98411.52
2019-01-21T06:59:42.898Z,98413.45
2019-01-21T07:05:20.268Z,98411.23
2019-01-21T07:08:26.396Z,98416.48
2019-01-21T07:11:13.199Z,98422.18
2019-01-21T07:13:55.339Z,98426.91
2019-01-21T07:17:01.827Z,98428.58
2019-01-21T07:19:40.320Z,98423.93
2019-01-21T07:22:27.515Z,98424.11
2019-01-21T07:25:08.917Z,98427.42
2019-01-21T07:28:12.286Z,98416.04
2019-01-21T07:31:03.847Z,98422.69
2019-01-21T07:33:39.327Z,98423.52
2019-01-21T07:36:18.223Z,98425.25
2019-01-21T07:39:05.044Z,98428.02
2019-01-21T07:41:44.567Z,98426.53
2019-01-21T07:44:22.515Z,98425.58
2019-01-21T07:47:09.274Z,98417.27
2019-01-21T07:49:56.077Z,98415.83
2019-01-21T07:52:42.966Z,98416.70
2019-01-21T07:55:29.774Z,98419.11
2019-01-21T07:58:16.614Z,98421.56
2019-01-21T08:00:55.088Z,98420.13
2019-01-21T08:04:01.180Z,98427.36
2019-01-21T08:06:58.578Z,98438.25
2019-01-21T08:09:44.330Z,98425.82
2019-01-21T08:12:31.936Z,98430.28
2019-01-21T08:15:19.874Z,98433.90
2019-01-21T08:18:06.918Z,98433.52
2019-01-21T08:20:42.473Z,98441.58
2019-01-21T08:23:18.091Z,98440.36
2019-01-21T08:26:11.812Z,98436.31
2019-01-21T08:29:18.226Z,98432.50
2019-01-21T08:32:05.021Z,98430.69
2019-01-21T08:34:51.604Z,98430.57
2019-01-21T08:37:38.367Z,98433.30
2019-01-21T08:40:19.747Z,98425.64
2019-01-21T08:43:16.779Z,98433.37
2019-01-21T08:45:53.463Z,98430.73
2019-01-21T08:48:50.228Z,98433.21
2019-01-21T08:51:26.982Z,98436.08
2019-01-21T08:54:20.796Z,98433.88
2019-01-21T08:57:01.599Z,98434.58
2019-01-21T08:59:49.282Z,98434.91
2019-01-21T09:02:40.332Z,98439.22
2019-01-21T09:05:28.234Z,98437.98
2019-01-21T09:08:19.286Z,98440.48
2019-01-21T09:11:19.262Z,98439.67
2019-01-21T09:13:58.944Z,98441.64
2019-01-21T09:16:34.939Z,98443.84
2019-01-21T09:19:26.009Z,98448.93
2019-01-21T09:22:13.909Z,98445.16
2019-01-21T09:24:55.354Z,98451.73
2019-01-21T09:27:58.325Z,98447.29
2019-01-21T09:30:46.226Z,98442.50
2019-01-21T09:33:35.015Z,98444.42
2019-01-21T09:36:25.770Z,98445.79
2019-01-21T09:39:08.563Z,98445.78
2019-01-21T09:41:45.039Z,98449.68
2019-01-21T09:44:22.999Z,98451.59
2019-01-21T09:46:51.663Z,98455.86
2019-01-21T09:49:19.647Z,98452.16
2019-01-21T09:52:07.410Z,98454.50
2019-01-21T09:54:37.230Z,98454.86
2019-01-21T09:57:06.546Z,98445.44
2019-01-21T09:59:35.288Z,98444.33
2019-01-21T10:02:05.206Z,98439.63
2019-01-21T10:04:40.136Z,98442.39
2019-01-21T10:07:29.206Z,98439.49
2019-01-21T10:10:20.061Z,98439.73
2019-01-21T10:12:59.426Z,98437.94
2019-01-21T10:15:35.343Z,98432.23
2019-01-21T10:18:26.188Z,98421.16
2019-01-21T10:21:02.316Z,98416.44
2019-01-21T10:23:50.244Z,98411.14
2019-01-21T10:26:36.920Z,98402.94
2019-01-21T10:29:08.599Z,98399.66
2019-01-21T10:31:48.295Z,98395.81
2019-01-21T10:34:39.579Z,98391.44
2019-01-21T10:37:23.795Z,98386.59
2019-01-21T10:40:11.691Z,98383.52
2019-01-21T10:43:18.045Z,98378.02
2019-01-21T10:45:58.628Z,98374.40
2019-01-21T10:48:42.721Z,98369.87
2019-01-21T10:51:18.323Z,98366.84
2019-01-21T10:54:09.171Z,98368.79
2019-01-21T10:56:57.135Z,98367.84
2019-01-21T10:59:30.399Z,98356.80
2019-01-21T11:02:36.525Z,98344.49
2019-01-21T11:05:20.945Z,98343.77
2019-01-21T11:08:12.039Z,98341.05
2019-01-21T11:11:03.060Z,98333.19
2019-01-21T11:13:44.350Z,98337.42
2019-01-21T11:16:20.236Z,98329.34
2019-01-21T11:19:05.502Z,98323.20
2019-01-21T11:21:54.658Z,98315.66
2019-01-21T11:24:27.996Z,98314.13
2019-01-21T11:27:28.029Z,98317.30
2019-01-21T11:30:18.927Z,98307.55
2019-01-21T11:32:56.417Z,98305.61
2019-01-21T11:35:44.394Z,98305.17
2019-01-21T11:38:38.372Z,98294.26
2019-01-21T11:41:32.223Z,98293.27
2019-01-21T11:44:19.015Z,98288.86
2019-01-21T11:47:12.927Z,98281.52
2019-01-21T11:50:16.035Z,98281.62
2019-01-21T11:52:53.475Z,98269.81
2019-01-21T11:55:44.219Z,98269.05
2019-01-21T11:58:47.635Z,98269.16
2019-01-21T12:01:23.333Z,98274.92
2019-01-21T12:04:07.811Z,98259.27
2019-01-21T12:06:39.201Z,98268.79
2019-01-21T12:09:25.815Z,98270.34
2019-01-21T12:12:16.600Z,98262.30
2019-01-21T12:15:06.234Z,98264.78
2019-01-21T12:17:43.432Z,98259.95
2019-01-21T12:20:18.152Z,98251.62
2019-01-21T12:23:08.137Z,98251.08
2019-01-21T12:25:39.482Z,98252.76
2019-01-21T12:28:15.357Z,98253.10
2019-01-21T12:31:06.535Z,98253.75
2019-01-21T12:33:51.723Z,98237.84
2019-01-21T12:36:26.232Z,98232.11
2019-01-21T12:39:12.839Z,98238.70
2019-01-21T12:42:07.024Z,98238.28
2019-01-21T12:44:53.583Z,98220.80
2019-01-21T12:47:29.052Z,98230.78
2019-01-21T12:50:23.993Z,98224.08
2019-01-21T12:53:09.507Z,98211.22
2019-01-21T12:56:09.538Z,98211.40
2019-01-21T12:59:00.458Z,98220.23
2019-01-21T13:01:36.100Z,98215.98
2019-01-21T13:04:19.655Z,98215.30
2019-01-21T13:07:02.437Z,98208.97
2019-01-21T13:09:53.403Z,98199.14
2019-01-21T13:12:59.575Z,98200.57
2019-01-21T13:15:40.372Z,98193.50
2019-01-21T13:18:34.475Z,98185.20
2019-01-21T13:21:12.038Z,98192.05
2019-01-21T13:23:47.230Z,98187.17
2019-01-21T13:26:26.472Z,98181.84
2019-01-21T13:29:04.504Z,98179.61
2019-01-21T13:31:35.938Z,98173.06
2019-01-21T13:34:22.220Z,98178.85
2019-01-21T13:37:00.590Z,98172.32
2019-01-21T13:39:47.194Z,98183.66
2019-01-21T13:42:18.571Z,98179.16
2019-01-21T13:45:11.995Z,98177.73
2019-01-21T13:47:50.473Z,98179.75
2019-01-21T13:50:21.658Z,98174.66
2019-01-21T13:53:13.412Z,98172.48
2019-01-21T13:55:46.051Z,98159.77
2019-01-21T13:58:34.079Z,98166.30
2019-01-21T14:01:22.067Z,98167.95
2019-01-21T14:04:28.409Z,98165.42
2019-01-21T14:07:01.883Z,98166.02
2019-01-21T14:10:08.004Z,98169.43
2019-01-21T14:12:58.555Z,98168.52
2019-01-21T14:15:45.339Z,98165.91
2019-01-21T14:18:26.748Z,98163.09
2019-01-21T14:21:03.784Z,98161.72
2019-01-21T14:23:41.812Z,98167.61
2019-01-21T14:26:28.446Z,98159.61
2019-01-21T14:29:34.878Z,98164.64
2019-01-21T14:32:14.522Z,98169.14
2019-01-21T14:34:55.782Z,98173.84
2019-01-21T14:37:59.224Z,98156.67
2019-01-21T14:40:46.138Z,98170.47
2019-01-21T14:43:45.964Z,98161.92
2019-01-21T14:46:43.100Z,98162.68
2019-01-21T14:49:29.797Z,98164.43
2019-01-21T14:52:03.726Z,98165.23
2019-01-21T14:54:57.732Z,98163.02
2019-01-21T14:57:38.171Z,98168.35
2019-01-21T15:00:26.047Z,98176.25
2019-01-21T15:03:23.045Z,98181.93
2019-01-21T15:06:10.962Z,98177.05
2019-01-21T15:08:42.403Z,98184.11
2019-01-21T15:11:19.490Z,98188.66
2019-01-21T15:14:06.445Z,98188.23
2019-01-21T15:16:42.590Z,98196.95
2019-01-21T15:19:23.017Z,98187.55
2019-01-21T15:22:09.952Z,98191.08
2019-01-21T15:24:56.960Z,98188.47
2019-01-21T15:27:43.935Z,98181.86
2019-01-21T15:30:41.155Z,98182.29
2019-01-21T15:33:27.887Z,98175.69
2019-01-21T15:36:17.426Z,98177.07
2019-01-21T15:39:00.396Z,98181.40
2019-01-21T15:41:39.425Z,98177.77
2019-01-21T15:44:16.250Z,98177.30
2019-01-21T15:47:10.525Z,98177.32
2019-01-21T15:49:58.458Z,98183.50
2019-01-21T15:52:52.755Z,98181.30
2019-01-21T15:55:53.107Z,98180.16
2019-01-21T15:58:41.153Z,98183.90
2019-01-21T16:01:24.365Z,98184.07
2019-01-21T16:04:15.290Z,98188.05
2019-01-21T16:06:57.345Z,98185.80
2019-01-21T16:09:37.876Z,98191.81
2019-01-21T16:12:11.733Z,98188.02
2019-01-21T16:14:55.071Z,98184.80
2019-01-21T16:17:32.475Z,98188.66
2019-01-21T16:20:23.219Z,98186.73
2019-01-21T16:23:11.297Z,98186.95
2019-01-21T16:25:46.147Z,98193.56
2019-01-21T16:28:33.371Z,98187.20
2019-01-21T16:31:27.619Z,98183.20
2019-01-21T16:34:15.507Z,98180.98
2019-01-21T16:36:52.427Z,98183.33
2019-01-21T16:39:44.588Z,98177.88
2019-01-21T16:42:16.189Z,98182.28
2019-01-21T16:44:45.952Z,98187.70
2019-01-21T16:47:15.034Z,98182.56
2019-01-21T16:49:44.183Z,98187.90
2019-01-21T16:52:12.961Z,98183.70
2019-01-21T16:54:41.720Z,98187.76
2019-01-21T16:57:10.443Z,98181.17
2019-01-21T16:59:39.427Z,98175.07
2019-01-21T17:02:08.064Z,98177.20
2019-01-21T17:04:36.980Z,98174.20
2019-01-21T17:07:05.755Z,98174.33
2019-01-21T17:09:34.468Z,98170.75
2019-01-21T17:12:03.194Z,98173.77
2019-01-21T17:14:33.040Z,98174.23
2019-01-21T17:17:01.696Z,98174.45
2019-01-21T17:19:30.378Z,98172.23
2019-01-21T17:21:59.283Z,98177.00
2019-01-21T17:24:27.923Z,98179.19
2019-01-21T17:26:57.739Z,98179.37
2019-01-21T17:29:26.404Z,98180.09
2019-01-21T17:31:55.167Z,98177.58
2019-01-21T17:34:25.191Z,98180.05
2019-01-21T17:36:54.059Z,98184.21
2019-01-21T17:39:24.347Z,98182.36
2019-01-21T17:41:53.343Z,98180.98
2019-01-21T17:44:22.103Z,98180.75
2019-01-21T17:46:51.103Z,98188.17
2019-01-21T17:49:19.813Z,98185.79
2019-01-21T17:51:48.488Z,98190.23
2019-01-21T17:54:17.211Z,98186.45
2019-01-21T17:56:45.846Z,98184.78
2019-01-21T17:59:14.562Z,98172.87
2019-01-21T18:01:43.282Z,98175.79
2019-01-21T18:04:12.048Z,98188.20
2019-01-21T18:06:42.172Z,98186.03
2019-01-21T18:09:11.158Z,98186.39
2019-01-21T18:11:41.411Z,98181.47
2019-01-21T18:14:10.442Z,98186.39
2019-01-21T18:16:39.076Z,98180.07
2019-01-21T18:19:07.728Z,98178.42
2019-01-21T18:21:40.114Z,98179.51
2019-01-21T18:24:06.974Z,98177.61
2019-01-21T18:26:36.115Z,98177.28
2019-01-21T18:29:04.791Z,98182.13
2019-01-21T18:31:33.447Z,98178.77
2019-01-21T18:34:02.695Z,98177.36
2019-01-21T18:36:31.467Z,98185.37
2019-01-21T18:39:00.635Z,98177.31
2019-01-21T18:41:31.313Z,98179.03
2019-01-21T18:44:00.063Z,98176.45
2019-01-21T18:46:28.723Z,98180.05
2019-01-21T18:48:57.479Z,98180.58
2019-01-21T18:51:26.506Z,98172.13
2019-01-21T18:53:56.221Z,98185.66
2019-01-21T18:56:24.978Z,98180.56
2019-01-21T18:58:53.834Z,98184.08
2019-01-21T19:01:22.486Z,98184.94
2019-01-21T19:03:51.560Z,98181.55
2019-01-21T19:06:20.204Z,98171.82
2019-01-21T19:08:50.232Z,98177.37
2019-01-21T19:11:18.913Z,98178.98
2019-01-21T19:13:47.561Z,98178.31
2019-01-21T19:16:16.356Z,98179.59
2019-01-21T19:18:45.343Z,98179.54
2019-01-21T19:21:14.171Z,98186.64
2019-01-21T19:23:44.433Z,98189.73
2019-01-21T19:26:14.130Z,98180.39
2019-01-21T19:28:42.773Z,98187.55
2019-01-21T19:31:11.633Z,98185.03
2019-01-21T19:33:40.457Z,98186.13
2019-01-21T19:36:09.247Z,98181.00
2019-01-21T19:38:39.050Z,98181.00
2019-01-21T19:41:07.703Z,98185.60
2019-01-21T19:43:36.945Z,98191.56
2019-01-21T19:46:05.691Z,98190.75
2019-01-21T19:48:34.446Z,98195.25
2019-01-21T19:51:04.251Z,98183.42
2019-01-21T19:53:34.179Z,98193.13
2019-01-21T19:56:03.998Z,98192.34
2019-01-21T19:58:34.810Z,98197.06
2019-01-21T20:01:04.906Z,98194.19
2019-01-21T20:03:34.714Z,98203.98
2019-01-21T20:06:04.662Z,98204.56
2019-01-21T20:08:34.900Z,98199.38
2019-01-21T20:11:05.104Z,98203.64
2019-01-21T20:13:35.908Z,98214.99
2019-01-21T20:16:05.656Z,98208.13
2019-01-21T20:18:35.518Z,98203.55
2019-01-21T20:21:05.392Z,98197.57
2019-01-21T20:23:35.220Z,98193.25
2019-01-21T20:26:04.979Z,98193.93
2019-01-21T20:28:34.899Z,98190.05
2019-01-21T20:31:05.445Z,98197.08
2019-01-21T20:33:35.611Z,98194.42
2019-01-21T20:36:05.621Z,98197.97
2019-01-21T20:38:36.837Z,98190.16
2019-01-21T20:41:06.694Z,98186.26
2019-01-21T20:43:36.523Z,98185.50
2019-01-21T20:46:06.317Z,98186.08
2019-01-21T20:48:36.268Z,98189.95
2019-01-21T20:51:06.062Z,98183.84
2019-01-21T20:53:35.815Z,98187.53
2019-01-21T20:56:08.199Z,98184.41
2019-01-21T20:58:39.056Z,98186.20
2019-01-21T21:01:08.824Z,98181.39
2019-01-21T21:03:38.714Z,98179.54
2019-01-21T21:06:08.752Z,98185.60
2019-01-21T21:08:38.706Z,98191.25
2019-01-21T21:11:09.794Z,98191.48
2019-01-21T21:13:39.690Z,98171.99
2019-01-21T21:16:09.826Z,98185.67
2019-01-21T21:18:39.819Z,98174.18
2019-01-21T21:21:09.860Z,98174.18
2019-01-21T21:23:40.548Z,98182.56
2019-01-21T21:26:10.492Z,98182.56
2019-01-21T21:28:40.321Z,98170.23
2019-01-21T21:31:10.244Z,98172.09
2019-01-21T21:33:40.339Z,98174.52
2019-01-21T21:36:10.253Z,98171.64
2019-01-21T21:38:40.455Z,98178.05
2019-01-21T21:41:10.669Z,98178.05
2019-01-21T21:43:40.416Z,98178.09
2019-01-21T21:46:10.293Z,98174.83
2019-01-21T21:48:39.947Z,98180.47
2019-01-21T21:51:10.118Z,98175.11
2019-01-21T21:53:39.889Z,98167.81
2019-01-21T21:56:11.207Z,98163.13
2019-01-21T21:58:41.099Z,98166.91
2019-01-21T22:01:11.148Z,98146.92
2019-01-21T22:03:41.110Z,98150.98
2019-01-21T22:06:11.474Z,98143.84
2019-01-21T22:08:41.328Z,98138.35
2019-01-21T22:11:11.110Z,98141.47
2019-01-21T22:13:40.804Z,98139.90
2019-01-21T22:16:11.292Z,98139.05
2019-01-21T22:18:41.426Z,98138.48
2019-01-21T22:21:11.694Z,98138.48
2019-01-21T22:23:41.795Z,98139.61
2019-01-21T22:26:11.585Z,98139.61
2019-01-21T22:28:41.915Z,98137.41
2019-01-21T22:31:11.751Z,98140.70
2019-01-21T22:33:41.944Z,98147.45
2019-01-21T22:36:12.149Z,98147.45
2019-01-21T22:38:41.913Z,98153.16
2019-01-21T22:41:12.535Z,98152.00
2019-01-21T22:43:42.445Z,98157.64
2019-01-21T22:46:12.503Z,98157.64
2019-01-21T22:48:42.185Z,98149.98
2019-01-21T22:51:12.304Z,98140.42
2019-01-21T22:53:42.341Z,98156.63
2019-01-21T22:56:12.547Z,98156.63
2019-01-21T22:58:42.299Z,98150.08
2019-01-21T23:01:25.150Z,98153.36
2019-01-21T23:03:55.811Z,98153.12
2019-01-21T23:06:26.074Z,98153.74
2019-01-21T23:08:55.820Z,98147.64
2019-01-21T23:11:25.719Z,98148.20
2019-01-21T23:13:55.703Z,98141.08
2019-01-21T23:16:25.561Z,98141.61
2019-01-21T23:18:55.420Z,98137.52
2019-01-21T23:21:25.438Z,98138.36
2019-01-21T23:23:55.262Z,98134.27
2019-01-21T23:26:25.360Z,98123.19
2019-01-21T23:28:55.219Z,98129.20
2019-01-21T23:31:24.976Z,98121.58
2019-01-21T23:33:54.782Z,98130.75
2019-01-21T23:36:25.026Z,98127.18
2019-01-21T23:38:55.091Z,98128.70
2019-01-21T23:41:25.302Z,98128.70
2019-01-21T23:43:55.163Z,98122.23
2019-01-21T23:46:25.020Z,98121.33
2019-01-21T23:48:55.201Z,98110.17
2019-01-21T23:51:24.974Z,98111.76
2019-01-21T23:53:54.767Z,98100.83
2019-01-21T23:56:24.506Z,98099.47
2019-01-21T23:58:54.506Z,98093.37
